createdAt,value
2023-02-27T00:01:39.317Z,98990.50
2023-02-27T00:04:41.925Z,99004.13
2023-02-27T00:07:44.692Z,98991.19
2023-02-27T00:10:47.341Z,98987.25
2023-02-27T00:13:51.360Z,98994.09
2023-02-27T00:16:55.411Z,98993.84
2023-02-27T00:19:58.185Z,98997.25
2023-02-27T00:23:13.347Z,98988.97
2023-02-27T00:26:15.991Z,98998.50
2023-02-27T00:29:19.515Z,98991.28
2023-02-27T00:32:23.477Z,98990.59
2023-02-27T00:35:26.242Z,98987.81
2023-02-27T00:38:29.491Z,98980.13
2023-02-27T00:41:32.209Z,98991.78
2023-02-27T00:44:34.726Z,98994.09
2023-02-27T00:47:38.781Z,98989.78
2023-02-27T00:50:41.357Z,98991.16
2023-02-27T00:53:43.966Z,98984.03
2023-02-27T00:56:46.550Z,98993.09
2023-02-27T00:59:49.529Z,98988.53
2023-02-27T01:02:53.403Z,98997.88
2023-02-27T01:05:59.410Z,98989.88
2023-02-27T01:09:02.590Z,98989.88
2023-02-27T01:12:05.465Z,98989.91
2023-02-27T01:15:09.817Z,98988.16
2023-02-27T01:18:13.759Z,98993.41
2023-02-27T01:21:16.588Z,98979.66
2023-02-27T01:24:19.868Z,98982.56
2023-02-27T01:27:22.482Z,98980.94
2023-02-27T01:30:25.063Z,98973.72
2023-02-27T01:33:29.007Z,98968.13
2023-02-27T01:36:31.701Z,98979.66
2023-02-27T01:39:34.291Z,98968.22
2023-02-27T01:42:37.245Z,98970.31
2023-02-27T01:45:41.355Z,98964.25
2023-02-27T01:48:45.530Z,98962.09
2023-02-27T01:51:50.403Z,98970.03
2023-02-27T01:54:53.388Z,98970.88
2023-02-27T01:57:56.311Z,98971.84
2023-02-27T02:00:58.842Z,98962.75
2023-02-27T02:04:07.896Z,98964.63
2023-02-27T02:07:13.564Z,98964.63
2023-02-27T02:10:17.023Z,98964.03
2023-02-27T02:13:20.266Z,98958.94
2023-02-27T02:16:42.880Z,98956.16
2023-02-27T02:20:36.843Z,98963.69
2023-02-27T02:24:01.277Z,98970.22
2023-02-27T02:27:19.763Z,98972.88
2023-02-27T02:30:57.281Z,98963.69
2023-02-27T02:34:25.747Z,98967.19
2023-02-27T02:38:10.885Z,98965.44
2023-02-27T02:41:20.446Z,98964.63
2023-02-27T02:44:27.418Z,98970.34
2023-02-27T02:47:36.713Z,98976.16
2023-02-27T02:50:43.218Z,98976.63
2023-02-27T02:53:49.762Z,98969.53
2023-02-27T02:56:58.093Z,98974.50
2023-02-27T03:00:06.291Z,98977.19
2023-02-27T03:03:13.087Z,98981.16
2023-02-27T03:06:19.109Z,98980.22
2023-02-27T03:09:25.548Z,98980.53
2023-02-27T03:12:30.397Z,98996.16
2023-02-27T03:15:38.018Z,98988.97
2023-02-27T03:18:44.632Z,98994.19
2023-02-27T03:21:49.668Z,98974.84
2023-02-27T03:24:54.625Z,98984.75
2023-02-27T03:28:01.864Z,98987.63
2023-02-27T03:31:10.316Z,98988.09
2023-02-27T03:34:18.041Z,98991.72
2023-02-27T03:37:26.081Z,98997.88
2023-02-27T03:40:32.292Z,98999.41
2023-02-27T03:43:41.957Z,98998.69
2023-02-27T03:46:44.782Z,99000.81
2023-02-27T03:49:47.467Z,99000.22
2023-02-27T03:52:50.306Z,99009.66
2023-02-27T03:59:37.655Z,99009.13
2023-02-27T04:02:41.183Z,99020.28
2023-02-27T04:05:43.811Z,99018.78
2023-02-27T04:08:52.080Z,99021.81
2023-02-27T04:12:10.198Z,99023.31
2023-02-27T04:15:19.136Z,99027.75
2023-02-27T04:18:28.904Z,99022.41
2023-02-27T04:21:36.216Z,99026.84
2023-02-27T04:25:04.786Z,99022.31
2023-02-27T04:28:17.360Z,99023.22
2023-02-27T04:31:24.624Z,99016.78
2023-02-27T04:34:31.982Z,99023.06
2023-02-27T04:37:42.471Z,99018.88
2023-02-27T04:40:49.617Z,99016.50
2023-02-27T04:44:09.874Z,99014.50
2023-02-27T04:47:15.512Z,99021.31
2023-02-27T04:50:21.538Z,99022.47
2023-02-27T04:53:26.410Z,99032.28
2023-02-27T04:56:32.183Z,99029.78
2023-02-27T04:59:39.206Z,99029.31
2023-02-27T05:02:45.710Z,99029.53
2023-02-27T05:05:49.220Z,99022.03
2023-02-27T05:08:59.081Z,99021.19
2023-02-27T05:12:03.231Z,99030.81
2023-02-27T05:15:10.243Z,99030.25
2023-02-27T05:18:17.126Z,99036.84
2023-02-27T05:21:27.920Z,99039.25
2023-02-27T05:24:35.861Z,99041.16
2023-02-27T05:27:47.342Z,99048.44
2023-02-27T05:30:57.531Z,99053.63
2023-02-27T05:34:17.130Z,99056.25
2023-02-27T05:37:24.909Z,99060.09
2023-02-27T05:40:32.206Z,99061.28
2023-02-27T05:43:36.525Z,99059.00
2023-02-27T05:46:42.810Z,99059.88
2023-02-27T05:49:49.512Z,99069.44
2023-02-27T05:52:52.746Z,99067.66
2023-02-27T05:55:57.468Z,99068.75
2023-02-27T05:59:02.336Z,99068.09
2023-02-27T06:02:05.192Z,99073.22
2023-02-27T06:05:10.153Z,99071.00
2023-02-27T06:08:13.264Z,99065.56
2023-02-27T06:11:15.772Z,99065.44
2023-02-27T06:14:19.804Z,99063.66
2023-02-27T06:17:22.922Z,99074.56
2023-02-27T06:20:27.038Z,99062.84
2023-02-27T06:23:29.614Z,99073.53
2023-02-27T06:26:34.237Z,99081.03
2023-02-27T06:29:48.034Z,99077.31
2023-02-27T06:32:52.220Z,99079.91
2023-02-27T06:37:04.809Z,99078.59
2023-02-27T06:40:12.416Z,99086.63
2023-02-27T06:43:15.518Z,99081.03
2023-02-27T06:46:18.134Z,99085.78
2023-02-27T06:49:20.932Z,99084.47
2023-02-27T06:52:23.590Z,99085.78
2023-02-27T06:55:27.576Z,99082.28
2023-02-27T06:58:30.240Z,99085.16
2023-02-27T07:01:33.159Z,99080.66
2023-02-27T07:04:35.920Z,99091.28
2023-02-27T07:07:42.886Z,99096.13
2023-02-27T07:10:49.752Z,99095.50
2023-02-27T07:14:06.166Z,99097.97
2023-02-27T07:17:13.135Z,99099.59
2023-02-27T07:20:16.538Z,99101.50
2023-02-27T07:23:31.613Z,99104.75
2023-02-27T07:26:58.929Z,99107.56
2023-02-27T07:30:21.185Z,99117.22
2023-02-27T07:33:27.526Z,99107.91
2023-02-27T07:36:43.836Z,99120.84
2023-02-27T07:43:27.686Z,99114.75
2023-02-27T07:46:34.401Z,99114.41
2023-02-27T07:57:26.123Z,99113.53
2023-02-27T08:00:36.844Z,99120.38
2023-02-27T08:03:40.605Z,99117.34
2023-02-27T08:06:46.205Z,99115.03
2023-02-27T08:09:48.844Z,99119.09
2023-02-27T08:12:51.553Z,99116.09
2023-02-27T08:15:57.022Z,99122.38
2023-02-27T08:19:14.061Z,99112.03
2023-02-27T08:22:17.009Z,99111.41
2023-02-27T08:25:22.208Z,99111.09
2023-02-27T08:28:35.394Z,99117.28
2023-02-27T08:32:22.239Z,99106.28
2023-02-27T08:35:29.905Z,99115.50
2023-02-27T08:38:45.121Z,99110.50
2023-02-27T08:41:56.932Z,99125.50
2023-02-27T08:45:30.634Z,99109.75
2023-02-27T08:49:32.549Z,99130.22
2023-02-27T08:52:42.254Z,99130.63
2023-02-27T08:56:17.107Z,99123.97
2023-02-27T08:59:31.620Z,99133.59
2023-02-27T09:02:34.897Z,99132.16
2023-02-27T09:05:43.387Z,99137.31
2023-02-27T09:08:46.183Z,99134.22
2023-02-27T09:15:25.887Z,99131.31
2023-02-27T09:18:29.219Z,99137.88
2023-02-27T09:22:06.817Z,99139.19
2023-02-27T09:25:15.429Z,99137.22
2023-02-27T09:28:18.057Z,99139.75
2023-02-27T09:31:20.595Z,99133.41
2023-02-27T09:34:23.212Z,99140.19
2023-02-27T09:37:27.131Z,99134.41
2023-02-27T09:40:33.297Z,99129.63
2023-02-27T09:44:00.257Z,99132.91
2023-02-27T09:47:09.377Z,99130.28
2023-02-27T09:54:41.502Z,99141.50
2023-02-27T09:58:15.681Z,99135.69
2023-02-27T10:01:23.538Z,99135.84
2023-02-27T10:04:35.381Z,99143.25
2023-02-27T10:07:45.455Z,99148.38
2023-02-27T10:11:14.113Z,99156.50
2023-02-27T10:14:30.697Z,99158.31
2023-02-27T10:17:51.667Z,99155.13
2023-02-27T10:21:09.399Z,99153.72
2023-02-27T10:24:25.622Z,99154.59
2023-02-27T10:27:37.189Z,99161.66
2023-02-27T10:30:44.377Z,99167.31
2023-02-27T10:33:50.654Z,99159.75
2023-02-27T10:36:56.595Z,99167.88
2023-02-27T10:40:08.802Z,99174.59
2023-02-27T10:43:20.526Z,99169.50
2023-02-27T10:46:32.580Z,99164.53
2023-02-27T10:49:37.820Z,99162.16
2023-02-27T10:52:52.445Z,99175.72
2023-02-27T10:56:00.144Z,99167.50
2023-02-27T10:59:06.949Z,99168.28
2023-02-27T11:02:24.549Z,99170.50
2023-02-27T11:05:55.222Z,99167.59
2023-02-27T11:09:25.825Z,99159.16
2023-02-27T11:12:29.914Z,99156.75
2023-02-27T11:15:34.835Z,99161.91
2023-02-27T11:18:38.666Z,99151.06
2023-02-27T11:21:41.065Z,99141.28
2023-02-27T11:24:44.179Z,99158.09
2023-02-27T11:27:47.664Z,99153.75
2023-02-27T11:31:03.477Z,99156.75
2023-02-27T11:34:08.342Z,99148.03
2023-02-27T11:37:23.336Z,99157.53
2023-02-27T11:40:30.086Z,99145.31
2023-02-27T11:43:34.383Z,99146.09
2023-02-27T11:46:48.122Z,99140.19
2023-02-27T11:50:11.632Z,99138.63
2023-02-27T11:53:40.216Z,99142.91
2023-02-27T11:56:45.574Z,99146.72
2023-02-27T11:59:51.780Z,99149.41
2023-02-27T12:02:59.591Z,99140.19
2023-02-27T12:06:05.970Z,99138.78
2023-02-27T12:09:21.663Z,99139.63
2023-02-27T12:12:27.502Z,99134.50
2023-02-27T12:15:32.483Z,99134.88
2023-02-27T12:18:41.448Z,99137.50
2023-02-27T12:21:48.402Z,99137.41
2023-02-27T12:24:54.969Z,99131.28
2023-02-27T12:28:03.082Z,99126.84
2023-02-27T12:31:17.482Z,99126.50
2023-02-27T12:34:29.752Z,99123.34
2023-02-27T12:37:43.808Z,99125.91
2023-02-27T12:41:10.333Z,99121.81
2023-02-27T12:45:06.197Z,99129.94
2023-02-27T12:48:39.786Z,99118.63
2023-02-27T12:52:09.130Z,99112.88
2023-02-27T12:55:41.333Z,99121.94
2023-02-27T12:58:59.115Z,99121.94
2023-02-27T13:02:29.528Z,99120.31
2023-02-27T13:05:48.994Z,99130.16
2023-02-27T13:09:17.139Z,99127.88
2023-02-27T13:12:27.298Z,99131.97
2023-02-27T13:15:34.505Z,99117.66
2023-02-27T13:18:48.586Z,99126.31
2023-02-27T13:22:00.418Z,99111.16
2023-02-27T13:25:08.998Z,99116.56
2023-02-27T13:28:23.841Z,99110.34
2023-02-27T13:31:40.184Z,99107.31
2023-02-27T13:34:46.212Z,99105.31
2023-02-27T13:38:02.217Z,99115.66
2023-02-27T13:45:04.134Z,99107.88
2023-02-27T13:48:42.375Z,99118.63
2023-02-27T13:51:51.987Z,99114.72
2023-02-27T13:58:34.231Z,99099.44
2023-02-27T14:01:42.903Z,99107.69
2023-02-27T14:05:07.443Z,99107.72
2023-02-27T14:08:21.104Z,99096.72
2023-02-27T14:12:03.249Z,99108.25
2023-02-27T14:15:20.807Z,99122.53
2023-02-27T14:19:03.444Z,99113.13
2023-02-27T14:22:37.553Z,99115.25
2023-02-27T14:25:43.412Z,99106.13
2023-02-27T14:28:50.863Z,99109.25
2023-02-27T14:32:08.831Z,99106.16
2023-02-27T14:35:17.863Z,99108.66
2023-02-27T14:38:26.961Z,99114.53
2023-02-27T14:41:41.636Z,99126.59
2023-02-27T14:44:50.654Z,99120.56
2023-02-27T14:48:05.090Z,99125.16
2023-02-27T14:51:10.247Z,99125.13
2023-02-27T14:54:15.858Z,99120.50
2023-02-27T14:57:20.232Z,99121.91
2023-02-27T15:00:35.258Z,99131.06
2023-02-27T15:03:42.102Z,99126.53
2023-02-27T15:06:48.012Z,99132.53
2023-02-27T15:09:51.129Z,99130.28
2023-02-27T15:13:04.093Z,99132.25
2023-02-27T15:16:31.141Z,99140.75
2023-02-27T15:19:34.214Z,99144.84
2023-02-27T15:22:40.173Z,99155.06
2023-02-27T15:25:43.311Z,99168.34
2023-02-27T15:28:45.963Z,99161.38
2023-02-27T15:31:48.900Z,99171.66
2023-02-27T15:34:51.876Z,99167.56
2023-02-27T15:37:57.456Z,99172.94
2023-02-27T15:41:01.226Z,99173.47
2023-02-27T15:44:04.683Z,99181.53
2023-02-27T15:47:07.662Z,99176.94
2023-02-27T15:50:13.277Z,99173.13
2023-02-27T15:53:20.372Z,99179.66
2023-02-27T15:56:27.658Z,99178.53
2023-02-27T15:59:46.703Z,99173.09
2023-02-27T16:02:53.712Z,99189.06
2023-02-27T16:05:56.560Z,99198.31
2023-02-27T16:09:01.954Z,99196.88
2023-02-27T16:12:13.956Z,99201.34
2023-02-27T16:15:30.356Z,99203.19
2023-02-27T16:18:35.428Z,99211.78
2023-02-27T16:21:38.096Z,99210.94
2023-02-27T16:24:42.646Z,99222.78
2023-02-27T16:27:48.665Z,99219.28
2023-02-27T16:30:54.305Z,99225.44
2023-02-27T16:33:58.474Z,99221.66
2023-02-27T16:37:02.468Z,99230.56
2023-02-27T16:40:14.435Z,99235.91
2023-02-27T16:43:18.721Z,99233.19
2023-02-27T16:46:24.703Z,99238.53
2023-02-27T16:49:28.613Z,99240.94
2023-02-27T16:52:31.272Z,99248.47
2023-02-27T16:55:35.822Z,99241.22
2023-02-27T16:58:38.608Z,99254.88
2023-02-27T17:01:41.361Z,99259.78
2023-02-27T17:04:47.573Z,99257.97
2023-02-27T17:07:50.373Z,99253.09
2023-02-27T17:10:54.446Z,99251.63
2023-02-27T17:13:57.175Z,99269.22
2023-02-27T17:16:59.816Z,99272.63
2023-02-27T17:20:05.453Z,99277.88
2023-02-27T17:23:12.106Z,99291.97
2023-02-27T17:26:17.617Z,99281.03
2023-02-27T17:29:20.279Z,99296.00
2023-02-27T17:32:23.261Z,99290.69
2023-02-27T17:35:26.732Z,99298.13
2023-02-27T17:38:29.410Z,99301.88
2023-02-27T17:41:34.364Z,99287.53
2023-02-27T17:44:37.725Z,99298.13
2023-02-27T17:47:40.363Z,99311.72
2023-02-27T17:50:44.893Z,99310.63
2023-02-27T17:53:47.878Z,99305.59
2023-02-27T17:56:51.793Z,99310.97
2023-02-27T17:59:54.514Z,99316.84
2023-02-27T18:02:57.187Z,99320.22
2023-02-27T18:06:00.217Z,99319.09
2023-02-27T18:09:02.830Z,99317.78
2023-02-27T18:12:07.228Z,99325.91
2023-02-27T18:15:13.693Z,99328.56
2023-02-27T18:18:16.508Z,99326.41
2023-02-27T18:21:21.123Z,99338.25
2023-02-27T18:24:23.904Z,99336.94
2023-02-27T18:27:28.810Z,99335.31
2023-02-27T18:30:33.440Z,99334.59
2023-02-27T18:33:36.184Z,99338.09
2023-02-27T18:36:39.550Z,99341.28
2023-02-27T18:39:42.786Z,99338.19
2023-02-27T18:42:48.453Z,99342.59
2023-02-27T18:45:51.391Z,99336.56
2023-02-27T18:48:54.138Z,99345.88
2023-02-27T18:51:56.769Z,99342.34
2023-02-27T18:55:02.988Z,99344.91
2023-02-27T18:58:07.512Z,99345.47
2023-02-27T19:01:18.983Z,99344.25
2023-02-27T19:04:21.667Z,99343.91
2023-02-27T19:07:25.498Z,99347.31
2023-02-27T19:10:28.523Z,99348.97
2023-02-27T19:13:32.939Z,99340.75
2023-02-27T19:16:36.259Z,99340.66
2023-02-27T19:19:38.938Z,99340.72
2023-02-27T19:22:42.248Z,99344.25
2023-02-27T19:25:48.052Z,99344.63
2023-02-27T19:28:53.755Z,99349.13
2023-02-27T19:31:56.980Z,99345.91
2023-02-27T19:34:59.991Z,99351.28
2023-02-27T19:38:02.758Z,99338.44
2023-02-27T19:41:07.677Z,99347.84
2023-02-27T19:44:11.745Z,99338.38
2023-02-27T19:47:14.391Z,99334.97
2023-02-27T19:50:17.421Z,99337.31
2023-02-27T19:53:20.250Z,99333.44
2023-02-27T19:56:25.151Z,99330.63
2023-02-27T19:59:29.128Z,99327.06
2023-02-27T20:02:31.707Z,99330.75
2023-02-27T20:05:38.456Z,99326.31
2023-02-27T20:08:41.113Z,99334.38
2023-02-27T20:11:44.476Z,99327.50
2023-02-27T20:14:48.491Z,99336.84
2023-02-27T20:17:51.109Z,99336.50
2023-02-27T20:21:00.223Z,99331.69
2023-02-27T20:24:03.482Z,99333.25
2023-02-27T20:27:07.360Z,99323.06
2023-02-27T20:30:13.607Z,99330.69
2023-02-27T20:33:16.251Z,99328.31
2023-02-27T20:36:18.820Z,99327.06
2023-02-27T20:39:22.353Z,99321.06
2023-02-27T20:42:24.940Z,99325.50
2023-02-27T20:45:29.140Z,99321.88
2023-02-27T20:48:31.723Z,99319.06
2023-02-27T20:51:36.891Z,99321.38
2023-02-27T20:54:39.836Z,99311.31
2023-02-27T20:57:42.563Z,99316.81
2023-02-27T21:00:46.791Z,99317.78
2023-02-27T21:03:50.992Z,99321.28
2023-02-27T21:06:54.707Z,99320.69
2023-02-27T21:09:57.510Z,99321.75
2023-02-27T21:13:00.106Z,99319.97
2023-02-27T21:16:04.748Z,99318.78
2023-02-27T21:19:07.747Z,99321.38
2023-02-27T21:22:11.392Z,99313.50
2023-02-27T21:25:15.099Z,99313.50
2023-02-27T21:28:18.066Z,99318.88
2023-02-27T21:31:24.193Z,99319.69
2023-02-27T21:34:28.271Z,99310.41
2023-02-27T21:37:30.943Z,99310.19
2023-02-27T21:40:33.696Z,99304.88
2023-02-27T21:43:41.089Z,99300.81
2023-02-27T21:46:46.589Z,99301.38
2023-02-27T21:49:49.199Z,99292.69
2023-02-27T21:52:52.423Z,99294.81
2023-02-27T21:55:55.366Z,99290.00
2023-02-27T21:59:01.793Z,99283.06
2023-02-27T22:02:05.847Z,99283.72
2023-02-27T22:05:09.111Z,99288.75
2023-02-27T22:08:12.032Z,99282.84
2023-02-27T22:11:15.125Z,99279.13
2023-02-27T22:14:17.931Z,99279.66
2023-02-27T22:17:22.553Z,99276.78
2023-02-27T22:20:25.276Z,99276.94
2023-02-27T22:23:28.360Z,99271.81
2023-02-27T22:26:32.729Z,99276.97
2023-02-27T22:29:35.359Z,99286.31
2023-02-27T22:32:40.596Z,99278.50
2023-02-27T22:35:43.829Z,99281.53
2023-02-27T22:38:46.560Z,99278.88
2023-02-27T22:41:49.407Z,99276.88
2023-02-27T22:44:52.015Z,99280.25
2023-02-27T22:47:56.099Z,99275.81
2023-02-27T22:50:59.994Z,99278.47
2023-02-27T22:54:03.246Z,99277.22
2023-02-27T22:57:05.987Z,99274.41
2023-02-27T23:00:11.754Z,99271.13
2023-02-27T23:03:17.520Z,99281.91
2023-02-27T23:06:22.098Z,99273.09
2023-02-27T23:09:27.472Z,99266.22
2023-02-27T23:12:30.092Z,99274.25
2023-02-27T23:15:34.663Z,99270.19
2023-02-27T23:18:39.429Z,99272.38
2023-02-27T23:21:42.018Z,99275.94
2023-02-27T23:24:44.920Z,99277.66
2023-02-27T23:27:47.545Z,99269.69
2023-02-27T23:30:50.716Z,99281.16
2023-02-27T23:33:55.057Z,99274.47
2023-02-27T23:36:57.750Z,99281.13
2023-02-27T23:40:00.653Z,99277.00
2023-02-27T23:43:20.998Z,99284.91
2023-02-27T23:46:23.654Z,99270.84
2023-02-27T23:49:27.612Z,99278.97
2023-02-27T23:52:30.880Z,99279.03
2023-02-27T23:55:35.114Z,99277.09
2023-02-27T23:58:37.850Z,99272.88
